Time;durP1;ratioP1;P1;durP2;ratioP2;P2;SDS_P1;SDS_P2;PMS_P1;PMS_P2;Temp;Humidity;BMP_temperature;BMP_pressure;BME280_temperature;BME280_humidity;BME280_pressure;Samples;Min_cycle;Max_cycle;Signal;HPM_P1;HPM_P2
2022/11/13 00:00:06;;;;;;;7.60;6.80;;;;;;;;;;6101532;23;20046;-90
2022/11/13 00:02:33;;;;;;;7.85;7.05;;;;;;;;;;6078096;23;20018;-90
2022/11/13 00:04:59;;;;;;;10.32;7.80;;;;;;;;;;6078335;23;20092;-90
2022/11/13 00:07:25;;;;;;;29.30;9.25;;;;;;;;;;6078048;23;20028;-92
2022/11/13 00:09:51;;;;;;;9.40;7.95;;;;;;;;;;6102493;23;20058;-90
2022/11/13 00:12:17;;;;;;;9.98;7.55;;;;;;;;;;6077807;23;20018;-91
2022/11/13 00:14:43;;;;;;;11.10;8.77;;;;;;;;;;6078034;23;20057;-89
2022/11/13 00:17:09;;;;;;;9.40;7.90;;;;;;;;;;6079265;23;20018;-91
2022/11/13 00:19:36;;;;;;;8.80;7.68;;;;;;;;;;6079041;23;20096;-89
2022/11/13 00:22:02;;;;;;;11.38;10.18;;;;;;;;;;6103162;23;20368;-91
2022/11/13 00:24:28;;;;;;;10.38;9.27;;;;;;;;;;6077916;23;20021;-91
2022/11/13 00:26:54;;;;;;;12.45;10.20;;;;;;;;;;6077593;23;20066;-91
2022/11/13 00:29:20;;;;;;;11.57;10.35;;;;;;;;;;6077648;23;20028;-90
2022/11/13 00:31:46;;;;;;;14.60;11.07;;;;;;;;;;6102396;23;20017;-92
2022/11/13 00:34:12;;;;;;;16.25;11.93;;;;;;;;;;6078180;23;20074;-93
2022/11/13 00:36:38;;;;;;;23.17;16.10;;;;;;;;;;6102195;23;20154;-91
2022/11/13 00:39:04;;;;;;;17.10;13.73;;;;;;;;;;6077792;23;20025;-93
2022/11/13 00:41:30;;;;;;;12.75;10.35;;;;;;;;;;6078148;23;20032;-92
2022/11/13 00:43:57;;;;;;;15.25;9.82;;;;;;;;;;6078931;23;20452;-91
2022/11/13 00:46:23;;;;;;;13.07;10.38;;;;;;;;;;6077724;23;20014;-92
2022/11/13 00:48:52;;;;;;;13.90;11.10;;;;;;;;;;6077749;23;20340;-90
2022/11/13 00:51:18;;;;;;;15.98;11.82;;;;;;;;;;6102254;23;20021;-92
2022/11/13 00:53:44;;;;;;;17.20;13.05;;;;;;;;;;6127753;23;20057;-92
2022/11/13 00:56:10;;;;;;;25.02;16.48;;;;;;;;;;6077936;23;20466;-93
2022/11/13 00:58:36;;;;;;;28.33;17.83;;;;;;;;;;6078062;23;20017;-91
2022/11/13 01:01:05;;;;;;;24.55;18.65;;;;;;;;;;6078884;23;20018;-93
2022/11/13 01:03:31;;;;;;;26.45;18.98;;;;;;;;;;6101532;23;20482;-93
2022/11/13 01:05:57;;;;;;;28.52;18.05;;;;;;;;;;6079032;23;20324;-90
2022/11/13 01:08:23;;;;;;;26.83;18.58;;;;;;;;;;6078279;23;20096;-92
2022/11/13 01:10:49;;;;;;;28.20;18.48;;;;;;;;;;6078142;23;20080;-92
2022/11/13 01:13:15;;;;;;;30.80;18.73;;;;;;;;;;6077530;23;20017;-91
2022/11/13 01:15:42;;;;;;;28.15;19.02;;;;;;;;;;6077181;23;20093;-92
2022/11/13 01:18:08;;;;;;;26.23;17.08;;;;;;;;;;6077268;23;20022;-91
2022/11/13 01:20:35;;;;;;;28.42;18.33;;;;;;;;;;6128213;23;20014;-92
2022/11/13 01:23:02;;;;;;;30.52;19.23;;;;;;;;;;6077363;23;20028;-92
2022/11/13 01:25:29;;;;;;;23.95;16.98;;;;;;;;;;6077646;23;20018;-91
2022/11/13 01:27:55;;;;;;;27.38;18.15;;;;;;;;;;6127342;23;20017;-92
2022/11/13 01:30:21;;;;;;;27.08;17.73;;;;;;;;;;6101557;23;20445;-92
2022/11/13 01:32:47;;;;;;;22.85;16.95;;;;;;;;;;6077265;23;20014;-90
2022/11/13 01:35:13;;;;;;;25.05;17.10;;;;;;;;;;6076667;23;20041;-89
2022/11/13 01:37:39;;;;;;;24.65;15.75;;;;;;;;;;6076658;23;20021;-88
2022/11/13 01:40:05;;;;;;;23.65;17.55;;;;;;;;;;6100322;23;20497;-87
2022/11/13 01:42:32;;;;;;;24.92;17.60;;;;;;;;;;6100698;23;20018;-88
2022/11/13 01:45:01;;;;;;;29.10;18.77;;;;;;;;;;6077280;23;20068;-87
2022/11/13 01:47:27;;;;;;;27.08;18.33;;;;;;;;;;6101222;23;20018;-88
2022/11/13 01:49:55;;;;;;;22.70;16.67;;;;;;;;;;6076410;23;20068;-89
2022/11/13 01:52:32;;;;;;;23.38;16.38;;;;;;;;;;6076445;23;20482;-88
2022/11/13 01:55:00;;;;;;;25.40;18.15;;;;;;;;;;6076438;23;20018;-88
2022/11/13 01:57:26;;;;;;;31.35;18.92;;;;;;;;;;6077918;23;20022;-89
2022/11/13 01:59:54;;;;;;;27.33;18.50;;;;;;;;;;6076543;23;20021;-89
2022/11/13 02:02:20;;;;;;;24.90;18.13;;;;;;;;;;6101796;23;20305;-88
2022/11/13 02:04:47;;;;;;;26.00;16.88;;;;;;;;;;6100522;23;20053;-88
2022/11/13 02:07:14;;;;;;;24.80;16.85;;;;;;;;;;6076703;23;20339;-89
2022/11/13 02:09:44;;;;;;;26.33;18.52;;;;;;;;;;6076532;23;20017;-89
2022/11/13 02:12:12;;;;;;;26.35;18.38;;;;;;;;;;6076290;23;20026;-88
2022/11/13 02:14:40;;;;;;;26.85;18.90;;;;;;;;;;6076889;23;20022;-88
2022/11/13 02:17:08;;;;;;;29.63;19.48;;;;;;;;;;6126383;23;20022;-89
2022/11/13 02:19:36;;;;;;;25.30;17.67;;;;;;;;;;6100409;23;20105;-89
2022/11/13 02:22:06;;;;;;;33.33;19.73;;;;;;;;;;6100419;23;20050;-89
2022/11/13 02:24:33;;;;;;;30.52;19.90;;;;;;;;;;6100416;23;20018;-89
2022/11/13 02:27:01;;;;;;;29.23;19.63;;;;;;;;;;6126269;23;20360;-88
2022/11/13 02:29:27;;;;;;;23.88;19.05;;;;;;;;;;6126333;23;20451;-89
2022/11/13 02:31:54;;;;;;;25.92;19.08;;;;;;;;;;6126114;23;20018;-88
2022/11/13 02:34:20;;;;;;;24.15;18.52;;;;;;;;;;6100310;23;20018;-89
2022/11/13 02:36:46;;;;;;;21.75;16.20;;;;;;;;;;6076396;23;20049;-89
2022/11/13 02:39:13;;;;;;;23.10;16.83;;;;;;;;;;6076316;23;20076;-90
2022/11/13 02:41:39;;;;;;;20.30;16.02;;;;;;;;;;6100828;23;20014;-89
2022/11/13 02:44:05;;;;;;;21.08;15.23;;;;;;;;;;6079792;23;20069;-91
2022/11/13 02:46:31;;;;;;;18.40;14.40;;;;;;;;;;6079235;23;20455;-93
2022/11/13 02:48:57;;;;;;;25.65;16.58;;;;;;;;;;6079069;23;20464;-92
2022/11/13 02:51:23;;;;;;;19.27;15.45;;;;;;;;;;6079155;23;20504;-93
2022/11/13 02:53:49;;;;;;;21.60;16.20;;;;;;;;;;6078915;23;20113;-93
2022/11/13 02:56:16;;;;;;;20.67;16.00;;;;;;;;;;6103227;23;20029;-90
2022/11/13 02:58:42;;;;;;;21.50;16.25;;;;;;;;;;6129219;23;20017;-93
2022/11/13 03:01:08;;;;;;;20.67;15.02;;;;;;;;;;6103013;23;20035;-91
2022/11/13 03:03:34;;;;;;;20.08;16.25;;;;;;;;;;6128922;23;20074;-91
2022/11/13 03:06:00;;;;;;;24.05;16.48;;;;;;;;;;6102778;23;20022;-93
2022/11/13 03:08:26;;;;;;;21.75;16.48;;;;;;;;;;6078622;23;20018;-92
2022/11/13 03:10:53;;;;;;;20.75;15.43;;;;;;;;;;6078630;23;20018;-93
2022/11/13 03:13:19;;;;;;;22.95;16.70;;;;;;;;;;6079157;23;20022;-93
2022/11/13 03:15:45;;;;;;;22.00;17.02;;;;;;;;;;6102675;23;20021;-90
2022/11/13 03:18:12;;;;;;;22.38;15.05;;;;;;;;;;6103443;23;20014;-93
2022/11/13 03:20:40;;;;;;;19.75;15.15;;;;;;;;;;6078517;23;20020;-93
2022/11/13 03:23:06;;;;;;;23.45;16.17;;;;;;;;;;6102725;23;20422;-92
2022/11/13 03:25:33;;;;;;;23.38;16.60;;;;;;;;;;6078552;23;20343;-91
2022/11/13 03:27:59;;;;;;;24.45;16.42;;;;;;;;;;6078607;23;20061;-92
2022/11/13 03:30:26;;;;;;;21.17;16.67;;;;;;;;;;6078441;23;20025;-91
2022/11/13 03:32:55;;;;;;;24.90;16.67;;;;;;;;;;6102386;23;20024;-89
2022/11/13 03:35:22;;;;;;;27.65;17.20;;;;;;;;;;6102256;23;20017;-94
2022/11/13 03:37:48;;;;;;;21.80;16.27;;;;;;;;;;6078373;23;20077;-91
2022/11/13 03:40:14;;;;;;;20.67;16.48;;;;;;;;;;6078704;23;20022;-91
2022/11/13 03:42:40;;;;;;;25.35;16.50;;;;;;;;;;6077708;23;20098;-88
2022/11/13 03:45:06;;;;;;;21.85;16.83;;;;;;;;;;6077709;23;20049;-89
2022/11/13 03:47:32;;;;;;;21.25;16.73;;;;;;;;;;6101768;23;20025;-88
2022/11/13 03:49:58;;;;;;;21.02;15.77;;;;;;;;;;6078071;23;20053;-89
2022/11/13 03:52:24;;;;;;;23.58;17.08;;;;;;;;;;6101376;23;20021;-88
2022/11/13 03:54:50;;;;;;;20.38;17.08;;;;;;;;;;6101078;23;20073;-88
2022/11/13 03:57:16;;;;;;;22.85;16.50;;;;;;;;;;6077374;23;20396;-88
2022/11/13 03:59:42;;;;;;;21.73;17.30;;;;;;;;;;6077531;23;20473;-88
2022/11/13 04:02:08;;;;;;;21.73;15.63;;;;;;;;;;6101449;23;20064;-88
2022/11/13 04:04:34;;;;;;;20.77;15.63;;;;;;;;;;6101838;23;20022;-88
2022/11/13 04:07:00;;;;;;;23.95;16.08;;;;;;;;;;6077791;23;20534;-89
2022/11/13 04:09:26;;;;;;;21.45;16.60;;;;;;;;;;6102148;23;20022;-88
2022/11/13 04:11:52;;;;;;;21.10;16.70;;;;;;;;;;6127709;23;20073;-88
2022/11/13 04:14:18;;;;;;;19.65;15.80;;;;;;;;;;6101134;23;20026;-88
2022/11/13 04:16:44;;;;;;;22.08;15.65;;;;;;;;;;6077405;23;20474;-87
2022/11/13 04:19:10;;;;;;;19.95;15.38;;;;;;;;;;6101321;23;20032;-88
2022/11/13 04:21:36;;;;;;;20.85;16.20;;;;;;;;;;6101397;23;20033;-89
2022/11/13 04:24:02;;;;;;;23.60;15.93;;;;;;;;;;6127521;23;20018;-89
2022/11/13 04:26:28;;;;;;;24.83;16.02;;;;;;;;;;6127797;23;20022;-89
2022/11/13 04:28:54;;;;;;;26.98;16.92;;;;;;;;;;6127452;23;20014;-88
2022/11/13 04:31:20;;;;;;;21.48;16.33;;;;;;;;;;6077187;23;20371;-88
2022/11/13 04:33:46;;;;;;;22.92;15.18;;;;;;;;;;6127593;23;20309;-88
2022/11/13 04:36:12;;;;;;;22.50;14.45;;;;;;;;;;6101258;23;20451;-87
2022/11/13 04:38:38;;;;;;;22.27;16.27;;;;;;;;;;6100987;23;20014;-88
2022/11/13 04:43:49;;;;;;;24.67;16.42;;;;;;;;;;6101065;23;20024;-88
2022/11/13 04:46:15;;;;;;;26.00;15.82;;;;;;;;;;6077043;23;20040;-88
2022/11/13 04:48:41;;;;;;;21.92;15.40;;;;;;;;;;6077088;23;20013;-89
2022/11/13 04:51:07;;;;;;;22.80;16.08;;;;;;;;;;6077852;23;20014;-87
2022/11/13 04:53:33;;;;;;;21.95;15.13;;;;;;;;;;6077169;23;20096;-89
2022/11/13 04:55:59;;;;;;;22.98;17.20;;;;;;;;;;6100986;23;20169;-88
2022/11/13 04:58:25;;;;;;;22.25;15.45;;;;;;;;;;6077035;23;20021;-87
2022/11/13 05:00:51;;;;;;;21.17;15.48;;;;;;;;;;6101208;23;20018;-89
2022/11/13 05:03:17;;;;;;;21.10;15.35;;;;;;;;;;6078310;23;20025;-89
2022/11/13 05:05:43;;;;;;;26.25;17.10;;;;;;;;;;6076941;23;20025;-88
2022/11/13 05:08:10;;;;;;;17.85;13.98;;;;;;;;;;6076952;23;20096;-89
2022/11/13 05:10:36;;;;;;;21.80;15.73;;;;;;;;;;6076959;23;20022;-88
2022/11/13 05:13:02;;;;;;;26.00;14.77;;;;;;;;;;6076737;23;20347;-87
2022/11/13 05:15:28;;;;;;;26.08;16.02;;;;;;;;;;6076741;23;20460;-87
2022/11/13 05:17:54;;;;;;;19.95;14.50;;;;;;;;;;6076738;23;20049;-88
2022/11/13 05:20:20;;;;;;;20.73;15.05;;;;;;;;;;6077280;23;20073;-88
2022/11/13 05:22:46;;;;;;;25.25;15.48;;;;;;;;;;6077466;23;20018;-93
2022/11/13 05:25:12;;;;;;;20.90;15.27;;;;;;;;;;6103147;23;20411;-89
2022/11/13 05:27:38;;;;;;;19.83;15.32;;;;;;;;;;6078633;23;20029;-92
2022/11/13 05:30:05;;;;;;;21.80;16.23;;;;;;;;;;6077609;23;20018;-92
2022/11/13 05:32:31;;;;;;;20.45;14.50;;;;;;;;;;6101384;23;20014;-94
2022/11/13 05:34:57;;;;;;;22.75;15.05;;;;;;;;;;6101667;23;20024;-93
2022/11/13 05:37:23;;;;;;;17.58;14.60;;;;;;;;;;6077879;23;20093;-94
2022/11/13 05:39:49;;;;;;;19.75;14.63;;;;;;;;;;6078042;23;20022;-94
2022/11/13 05:42:15;;;;;;;18.92;14.50;;;;;;;;;;6077515;23;20022;-91
2022/11/13 05:44:41;;;;;;;22.17;15.20;;;;;;;;;;6077344;23;20022;-91
2022/11/13 05:47:07;;;;;;;22.98;14.52;;;;;;;;;;6077568;23;20018;-93
2022/11/13 05:49:33;;;;;;;17.85;13.65;;;;;;;;;;6077406;23;20018;-93
2022/11/13 05:51:59;;;;;;;19.80;13.93;;;;;;;;;;6077451;23;20097;-93
2022/11/13 05:54:25;;;;;;;20.67;13.55;;;;;;;;;;6078783;23;20069;-92
2022/11/13 05:56:52;;;;;;;23.20;15.32;;;;;;;;;;6077522;23;20018;-92
2022/11/13 05:59:18;;;;;;;22.45;14.05;;;;;;;;;;6077634;23;20022;-93
2022/11/13 06:01:44;;;;;;;19.40;14.82;;;;;;;;;;6101383;23;20022;-91
2022/11/13 06:04:10;;;;;;;20.52;14.02;;;;;;;;;;6077634;23;20032;-89
2022/11/13 06:06:36;;;;;;;23.23;14.48;;;;;;;;;;6101569;23;20022;-93
2022/11/13 06:09:03;;;;;;;18.67;14.13;;;;;;;;;;6127297;23;20026;-93
2022/11/13 06:11:30;;;;;;;20.08;14.38;;;;;;;;;;6077442;23;20029;-91
2022/11/13 06:13:56;;;;;;;18.17;13.25;;;;;;;;;;6101346;23;20471;-93
2022/11/13 06:16:26;;;;;;;19.10;13.13;;;;;;;;;;6101700;23;20345;-93
2022/11/13 06:18:57;;;;;;;21.73;14.70;;;;;;;;;;6079597;23;20085;-95
2022/11/13 06:21:24;;;;;;;19.35;14.32;;;;;;;;;;6103626;23;20097;-94
2022/11/13 06:23:50;;;;;;;20.38;13.88;;;;;;;;;;6103485;23;20366;-92
2022/11/13 06:26:24;;;;;;;18.90;13.48;;;;;;;;;;6129361;23;20335;-92
2022/11/13 06:28:50;;;;;;;24.05;14.82;;;;;;;;;;6103602;23;20352;-92
2022/11/13 06:31:18;;;;;;;18.75;13.85;;;;;;;;;;6103338;23;20022;-91
2022/11/13 06:33:44;;;;;;;18.50;13.10;;;;;;;;;;6103467;23;20022;-93
2022/11/13 06:36:14;;;;;;;17.38;13.13;;;;;;;;;;6079222;23;20026;-93
2022/11/13 06:38:40;;;;;;;15.07;12.13;;;;;;;;;;6103409;23;20022;-93
2022/11/13 06:41:08;;;;;;;16.98;12.00;;;;;;;;;;6078135;23;20033;-88
2022/11/13 06:43:34;;;;;;;18.27;12.32;;;;;;;;;;6078263;23;20033;-86
2022/11/13 06:46:03;;;;;;;19.20;12.35;;;;;;;;;;6077925;23;20026;-88
2022/11/13 06:48:29;;;;;;;16.23;12.23;;;;;;;;;;6102103;23;20145;-89
2022/11/13 06:50:59;;;;;;;16.67;12.70;;;;;;;;;;6078238;23;20332;-88
2022/11/13 06:53:25;;;;;;;22.65;14.05;;;;;;;;;;6128619;23;20026;-87
2022/11/13 06:55:51;;;;;;;19.05;13.38;;;;;;;;;;6127976;23;20471;-88
2022/11/13 06:58:17;;;;;;;15.10;12.18;;;;;;;;;;6078066;23;20030;-87
2022/11/13 07:00:44;;;;;;;19.08;13.18;;;;;;;;;;6128239;23;20017;-88
2022/11/13 07:03:15;;;;;;;15.32;11.70;;;;;;;;;;6102026;23;20053;-87
2022/11/13 07:05:41;;;;;;;19.15;12.75;;;;;;;;;;6102031;23;20013;-89
2022/11/13 07:08:07;;;;;;;18.70;12.70;;;;;;;;;;6102054;23;20049;-88
2022/11/13 07:10:33;;;;;;;17.40;12.35;;;;;;;;;;6127883;23;20018;-89
2022/11/13 07:12:59;;;;;;;17.30;11.93;;;;;;;;;;6128060;23;20028;-87
2022/11/13 07:15:25;;;;;;;15.88;11.57;;;;;;;;;;6127929;23;20106;-88
2022/11/13 07:17:51;;;;;;;16.38;12.05;;;;;;;;;;6077853;23;20014;-88
2022/11/13 07:20:20;;;;;;;17.48;13.10;;;;;;;;;;6078013;23;20025;-88
2022/11/13 07:22:46;;;;;;;17.35;13.50;;;;;;;;;;6078485;23;20470;-91
2022/11/13 07:25:12;;;;;;;20.75;12.82;;;;;;;;;;6078868;23;20097;-87
2022/11/13 07:27:43;;;;;;;21.50;13.60;;;;;;;;;;6080569;23;20102;-90
2022/11/13 07:30:10;;;;;;;17.52;12.77;;;;;;;;;;6131202;23;20369;-91
2022/11/13 07:32:36;;;;;;;16.33;12.50;;;;;;;;;;6103199;23;20055;-92
2022/11/13 07:35:02;;;;;;;18.85;12.98;;;;;;;;;;6102521;23;20018;-92
2022/11/13 07:37:28;;;;;;;22.67;12.63;;;;;;;;;;6103896;23;20029;-94
2022/11/13 07:39:54;;;;;;;17.00;12.70;;;;;;;;;;6128359;23;20057;-93
2022/11/13 07:42:20;;;;;;;24.52;14.15;;;;;;;;;;6078761;23;20036;-92
2022/11/13 07:44:46;;;;;;;18.38;13.15;;;;;;;;;;6078514;23;20467;-92
2022/11/13 07:47:12;;;;;;;17.85;12.93;;;;;;;;;;6102775;23;20022;-93
2022/11/13 07:49:38;;;;;;;16.77;13.70;;;;;;;;;;6102674;23;20021;-93
2022/11/13 07:52:04;;;;;;;17.20;13.05;;;;;;;;;;6078844;23;20018;-92
2022/11/13 07:54:30;;;;;;;23.75;13.20;;;;;;;;;;6078833;23;20029;-94
2022/11/13 07:56:56;;;;;;;16.73;12.43;;;;;;;;;;6103818;23;20077;-93
2022/11/13 07:59:22;;;;;;;18.98;12.65;;;;;;;;;;6102697;23;20060;-93
2022/11/13 08:01:48;;;;;;;18.50;13.65;;;;;;;;;;6078609;23;20018;-93
2022/11/13 08:04:14;;;;;;;19.27;13.35;;;;;;;;;;6102040;23;20022;-92
2022/11/13 08:06:40;;;;;;;18.83;12.90;;;;;;;;;;6078162;23;20057;-90
2022/11/13 08:09:06;;;;;;;15.05;11.68;;;;;;;;;;6101774;23;20017;-90
2022/11/13 08:11:32;;;;;;;16.60;12.98;;;;;;;;;;6078629;23;20024;-92
2022/11/13 08:13:58;;;;;;;16.25;12.75;;;;;;;;;;6127557;23;20018;-88
2022/11/13 08:16:25;;;;;;;20.45;13.48;;;;;;;;;;6127262;23;20018;-88
2022/11/13 08:18:51;;;;;;;16.45;13.38;;;;;;;;;;6077345;23;20045;-88
2022/11/13 08:21:19;;;;;;;17.40;13.18;;;;;;;;;;6101384;23;20029;-88
2022/11/13 08:23:46;;;;;;;16.65;12.88;;;;;;;;;;6102541;23;20149;-88
2022/11/13 08:26:12;;;;;;;20.35;13.43;;;;;;;;;;6077100;23;20024;-87
2022/11/13 08:28:38;;;;;;;18.10;12.75;;;;;;;;;;6101317;23;20018;-87
2022/11/13 08:31:04;;;;;;;17.05;12.32;;;;;;;;;;6101170;23;20020;-89
2022/11/13 08:33:30;;;;;;;19.83;11.90;;;;;;;;;;6077037;23;20022;-87
2022/11/13 08:35:58;;;;;;;22.65;14.13;;;;;;;;;;6077257;23;20018;-89
2022/11/13 08:38:24;;;;;;;16.40;13.18;;;;;;;;;;6101028;23;20104;-88
2022/11/13 08:40:51;;;;;;;19.60;13.90;;;;;;;;;;6076678;23;20018;-88
2022/11/13 08:43:18;;;;;;;19.77;12.88;;;;;;;;;;6077022;23;20026;-88
2022/11/13 08:45:47;;;;;;;19.10;13.50;;;;;;;;;;6077057;23;20014;-88
2022/11/13 08:48:13;;;;;;;20.65;13.32;;;;;;;;;;6076961;23;20053;-86
2022/11/13 08:50:40;;;;;;;19.08;13.20;;;;;;;;;;6076929;23;20355;-88
2022/11/13 08:53:06;;;;;;;17.92;13.98;;;;;;;;;;6077058;23;20022;-88
2022/11/13 08:55:32;;;;;;;17.60;13.52;;;7.20;99.90;;;;;;6100950;23;20096;-88
2022/11/13 08:57:59;;;;;;;19.88;14.35;;;;;;;;;;6101832;23;20021;-93
2022/11/13 09:00:25;;;;;;;22.17;14.52;;;;;;;;;;6077695;23;20022;-93
2022/11/13 09:02:55;;;;;;;17.35;13.82;;;;;;;;;;6078049;23;20085;-93
2022/11/13 09:05:22;;;;;;;18.15;13.75;;;;;;;;;;6077733;23;20025;-91
2022/11/13 09:07:48;;;;;;;17.92;13.38;;;;;;;;;;6077749;23;20014;-93
2022/11/13 09:10:14;;;;;;;19.65;13.38;;;;;;;;;;6101847;23;20467;-94
2022/11/13 09:12:40;;;;;;;19.17;13.63;;;;;;;;;;6101542;23;20025;-92
2022/11/13 09:15:07;;;;;;;20.52;14.05;;;;;;;;;;6077868;23;20018;-93
2022/11/13 09:17:33;;;;;;;23.13;13.77;;;;;;;;;;6078004;23;20014;-93
2022/11/13 09:19:59;;;;;;;16.13;12.10;;;;;;;;;;6077911;23;20028;-94
2022/11/13 09:22:25;;;;;;;16.08;13.35;;;;;;;;;;6102278;23;20022;-94
2022/11/13 09:24:51;;;;;;;17.40;13.35;;;;;;;;;;6101866;23;20498;-94
2022/11/13 09:27:17;;;;;;;15.63;12.70;;;;;;;;;;6101788;23;20022;-93
2022/11/13 09:29:43;;;;;;;15.55;12.57;;;;;;;;;;6077564;23;20144;-92
2022/11/13 09:32:09;;;;;;;15.82;12.73;;;;;;;;;;6102399;23;20026;-92
2022/11/13 09:34:38;;;;;;;17.85;11.80;;;;;;;;;;6077672;23;20018;-91
2022/11/13 09:37:04;;;;;;;15.48;12.18;;;;;;;;;;6077269;23;20020;-94
2022/11/13 09:39:31;;;;;;;16.20;11.93;;;;;;;;;;6077475;23;20026;-93
2022/11/13 09:42:10;;;;;;;16.60;11.23;;;;;;;;;;6101548;23;20475;-92
2022/11/13 09:44:43;;;;;;;12.85;10.70;;;;;;;;;;6101046;23;20490;-90
2022/11/13 09:47:14;;;;;;;14.90;11.43;;;;;;;;;;6101234;23;20475;-90
2022/11/13 09:49:46;;;;;;;21.63;10.77;;;;;;;;;;6077600;23;20541;-90
2022/11/13 09:52:16;;;;;;;13.95;10.23;;;8.80;99.90;;;;;;6100052;23;20022;-85
2022/11/13 09:54:42;;;;;;;14.23;9.95;;;;;;;;;;6076231;23;20384;-85
2022/11/13 09:57:27;;;;;;;14.63;11.13;;;;;;;;;;6077445;23;20020;-86
2022/11/13 10:00:01;;;;;;;12.88;10.60;;;;;;;;;;6100533;23;20132;-86
2022/11/13 10:03:01;;;;;;;12.75;10.55;;;9.10;99.90;;;;;;6076601;23;20018;-86
2022/11/13 10:05:27;;;;;;;14.23;10.38;;;;;;;;;;6076290;23;20021;-87
2022/11/13 10:08:10;;;;;;;14.98;10.15;;;9.20;99.90;;;;;;6076485;23;20092;-89
2022/11/13 10:10:36;;;;;;;13.23;11.80;;;;;;;;;;6076319;23;20355;-87
2022/11/13 10:13:03;;;;;;;13.48;10.50;;;;;;;;;;6100378;23;20057;-85
2022/11/13 10:15:30;;;;;;;15.95;11.13;;;9.40;99.90;;;;;;6100323;23;20455;-87
2022/11/13 10:17:59;;;;;;;13.63;10.93;;;9.40;99.90;;;;;;6076477;23;20101;-87
2022/11/13 10:20:30;;;;;;;13.15;10.88;;;;;;;;;;6100497;23;20058;-86
2022/11/13 10:23:20;;;;;;;13.68;10.57;;;9.50;99.90;;;;;;6076332;23;20513;-86
2022/11/13 10:25:46;;;;;;;11.80;9.65;;;;;;;;;;6099645;23;20054;-85
2022/11/13 10:28:19;;;;;;;12.60;10.75;;;9.60;99.90;;;;;;6076364;23;20014;-85
2022/11/13 10:30:45;;;;;;;14.32;11.57;;;;;;;;;;6076242;23;20018;-85
2022/11/13 10:33:22;;;;;;;12.13;9.98;;;;;;;;;;6100160;23;20018;-85
2022/11/13 10:35:54;;;;;;;14.85;11.93;;;;;;;;;;6076378;23;20025;-85
2022/11/13 10:38:24;;;;;;;13.65;11.45;;;;;;;;;;6100398;23;20022;-85
2022/11/13 10:40:50;;;;;;;13.05;10.48;;;;;;;;;;6100091;23;20122;-86
2022/11/13 10:43:19;;;;;;;11.02;9.75;;;10.00;99.90;;;;;;6100286;23;20460;-85
2022/11/13 10:46:05;;;;;;;11.90;9.90;;;10.10;99.90;;;;;;6101155;23;20104;-89
2022/11/13 10:48:33;;;;;;;11.95;8.60;;;10.20;99.90;;;;;;6077088;23;20448;-90
2022/11/13 10:51:05;;;;;;;12.38;10.02;;;10.00;99.90;;;;;;6100898;23;20014;-92
2022/11/13 10:53:40;;;;;;;12.85;10.18;;;10.20;99.90;;;;;;6100733;23;20026;-92
2022/11/13 10:56:28;;;;;;;13.60;11.43;;;10.30;99.90;;;;;;6077568;23;20020;-90
2022/11/13 10:59:13;;;;;;;11.73;9.55;;;10.50;99.90;;;;;;6100705;23;20018;-90
2022/11/13 11:01:41;;;;;;;12.18;9.80;;;10.60;99.90;;;;;;6100665;23;20021;-86
2022/11/13 11:04:10;;;;;;;14.43;10.75;;;;;;;;;;6102055;23;20060;-89
2022/11/13 11:06:38;;;;;;;11.68;9.95;;;;;;;;;;6078608;23;20054;-90
2022/11/13 11:09:05;;;;;;;15.02;9.82;;;;;;;;;;6102348;23;20104;-87
2022/11/13 11:14:20;;;;;;;12.15;9.20;;;10.90;99.90;;;;;;6101843;23;20022;-87
2022/11/13 11:16:48;;;;;;;12.13;8.85;;;;;;;;;;6102221;23;20455;-88
2022/11/13 11:19:15;;;;;;;11.40;9.95;;;;;;;;;;6078067;23;20053;-90
2022/11/13 11:21:42;;;;;;;13.77;10.23;;;;;;;;;;6103350;23;20339;-90
2022/11/13 11:24:14;;;;;;;11.95;10.15;;;;;;;;;;6077928;23;20072;-91
2022/11/13 11:26:50;;;;;;;13.77;10.18;;;;;;;;;;6077755;23;20033;-87
2022/11/13 11:29:34;;;;;;;11.60;9.73;;;;;;;;;;6077769;23;20014;-88
2022/11/13 11:32:12;;;;;;;10.75;9.20;;;11.10;99.90;;;;;;6078036;23;20025;-87
2022/11/13 11:34:54;;;;;;;12.07;9.68;;;11.10;99.90;;;;;;6077917;23;20105;-91
2022/11/13 11:37:22;;;;;;;12.65;9.73;;;;;;;;;;6102230;23;20033;-91
2022/11/13 11:39:48;;;;;;;12.57;9.73;;;;;;;;;;6079442;23;20014;-91
2022/11/13 11:42:17;;;;;;;12.25;10.20;;;;;;;;;;6102366;23;20384;-92
2022/11/13 11:44:43;;;;;;;12.02;10.38;;;;;;;;;;6078286;23;20009;-91
2022/11/13 11:47:13;;;;;;;14.27;10.43;;;;;;;;;;6102358;23;20049;-91
2022/11/13 11:49:40;;;;;;;12.05;10.73;;;;;;;;;;6078268;23;20014;-87
2022/11/13 11:52:35;;;;;;;12.32;10.50;;;11.10;99.90;;;;;;6102392;23;20096;-91
2022/11/13 11:55:04;;;;;;;14.20;10.55;;;;;;;;;;6078117;23;20029;-88
2022/11/13 11:57:30;;;;;;;17.88;11.27;;;;;;;;;;6078259;23;20029;-88
2022/11/13 12:00:11;;;;;;;13.82;10.90;;;;;;;;;;6079135;23;20017;-91
2022/11/13 12:02:55;;;;;;;12.05;10.68;;;;;;;;;;6078649;23;20101;-88
2022/11/13 12:05:24;;;;;;;12.15;9.90;;;;;;;;;;6102052;23;20046;-86
2022/11/13 12:07:56;;;;;;;12.43;10.13;;;;;;;;;;6077875;23;20053;-88
2022/11/13 12:10:25;;;;;;;10.77;8.90;;;;;;;;;;6078366;23;20018;-88
2022/11/13 12:13:00;;;;;;;12.38;9.57;;;;;;;;;;6077563;23;20109;-89
2022/11/13 12:15:49;;;;;;;11.85;9.63;;;11.50;99.90;;;;;;6101253;23;20053;-90
2022/11/13 12:19:00;;;;;;;15.85;10.30;;;11.70;99.90;;;;;;6101679;23;20329;-87
2022/11/13 12:21:47;;;;;;;13.77;10.45;;;11.70;99.90;;;;;;5987365;23;20031;-91
2022/11/13 12:24:42;;;;;;;11.55;9.52;;;;;;;;;;5963617;23;20106;-88
2022/11/13 12:27:27;;;;;;;14.30;10.32;;;;;;;;;;5883420;23;20131;-89
2022/11/13 12:29:58;;;;;;;16.00;10.38;;;;;;;;;;5892319;24;20024;-87
2022/11/13 12:32:43;;;;;;;11.65;9.65;;;;;;;;;;5896667;24;20073;-87
2022/11/13 12:35:12;;;;;;;12.05;10.10;;;;;;;;;;5899797;24;20099;-86
2022/11/13 12:37:42;;;;;;;15.07;10.18;;;;;;;;;;5897597;24;20032;-87
2022/11/13 12:40:21;;;;;;;13.98;9.93;;;;;;;;;;5916728;24;20025;-87
2022/11/13 12:43:17;;;;;;;10.80;9.70;;;;;;;;;;5912503;24;20063;-86
2022/11/13 12:45:57;;;;;;;13.77;10.55;;;;;;;;;;5881413;24;20026;-89
2022/11/13 12:48:34;;;;;;;12.55;9.52;;;;;;;;;;5882383;24;20030;-87
2022/11/13 12:51:01;;;;;;;11.70;9.85;;;;;;;;;;5859449;24;20022;-87
2022/11/13 12:53:30;;;;;;;15.60;10.10;;;;;;;;;;5862588;24;20109;-86
2022/11/13 12:55:58;;;;;;;12.30;9.73;;;;;;;;;;5860020;24;20073;-87
2022/11/13 12:58:27;;;;;;;11.63;9.50;;;;;;;;;;5907951;24;20025;-87
2022/11/13 13:01:05;;;;;;;11.70;9.68;;;;;;;;;;5892221;24;20052;-86
2022/11/13 13:03:40;;;;;;;11.80;9.68;;;;;;;;;;5955857;23;20047;-88
2022/11/13 13:06:22;;;;;;;11.60;9.77;;;;;;;;;;5971783;23;20020;-86
2022/11/13 13:08:48;;;;;;;12.88;9.95;;;;;;;;;;5970716;23;20066;-86
2022/11/13 13:11:31;;;;;;;12.70;9.85;;;;;;;;;;5970074;23;20020;-87
2022/11/13 13:14:35;;;;;;;11.48;9.93;;;;;;;;;;5990994;23;20023;-87
2022/11/13 13:17:13;;;;;;;11.55;10.02;;;12.20;99.90;;;;;;5911974;24;20025;-87
2022/11/13 13:19:39;;;;;;;12.95;9.63;;;;;;;;;;5933600;24;20020;-86
2022/11/13 13:22:25;;;;;;;10.52;9.30;;;12.20;99.90;;;;;;5962504;23;20020;-87
2022/11/13 13:25:01;;;;;;;12.15;10.30;;;;;;;;;;5967927;23;20028;-87
2022/11/13 13:27:29;;;;;;;13.18;9.65;;;;;;;;;;5989305;23;20023;-88
2022/11/13 13:29:55;;;;;;;11.43;9.43;;;;;;;;;;5966708;23;20020;-86
2022/11/13 13:32:24;;;;;;;10.68;9.20;;;;;;;;;;5967358;23;20091;-90
2022/11/13 13:35:44;;;;;;;12.18;9.13;;;12.30;99.90;;;;;;5969164;23;20466;-86
2022/11/13 13:38:31;;;;;;;12.98;9.57;;;;;;;;;;5827916;24;20030;-88
2022/11/13 13:41:05;;;;;;;13.40;9.32;;;;;;;;;;5828466;24;20026;-87
2022/11/13 13:43:34;;;;;;;11.93;9.25;;;;;;;;;;5828724;24;20026;-86
2022/11/13 13:46:00;;;;;;;12.20;9.45;;;;;;;;;;5829642;24;20046;-86
2022/11/13 13:48:27;;;;;;;11.73;9.27;;;;;;;;;;5847841;24;20044;-87
2022/11/13 13:50:53;;;;;;;11.43;9.27;;;;;;;;;;5856440;24;20139;-88
2022/11/13 13:53:25;;;;;;;10.20;8.68;;;;;;;;;;5835125;24;20025;-88
2022/11/13 13:55:52;;;;;;;10.77;9.57;;;;;;;;;;5836421;24;20028;-87
2022/11/13 13:58:21;;;;;;;9.63;8.48;;;;;;;;;;5834719;24;20083;-86
2022/11/13 14:00:57;;;;;;;11.43;9.60;;;12.20;99.90;;;;;;5832308;24;20112;-87
2022/11/13 14:03:25;;;;;;;15.00;9.50;;;;;;;;;;5854214;24;20022;-87
2022/11/13 14:05:51;;;;;;;11.77;9.38;;;;;;;;;;5831100;24;20064;-86
2022/11/13 14:08:23;;;;;;;12.10;10.05;;;;;;;;;;5831104;24;20026;-86
2022/11/13 14:10:49;;;;;;;10.35;9.25;;;;;;;;;;5852723;24;20026;-88
2022/11/13 14:13:23;;;;;;;11.80;9.18;;;;;;;;;;5831519;24;20033;-88
2022/11/13 14:15:58;;;;;;;;;;;12.10;99.90;;;;;;6103202;23;20018;-88
2022/11/13 14:18:25;;;;;;;13.13;9.85;;;;;;;;;;6100503;23;19924;-90
2022/11/13 14:20:52;;;;;;;12.65;9.43;;;;;;;;;;6076348;23;20025;-87
2022/11/13 14:23:20;;;;;;;11.07;9.88;;;;;;;;;;6102093;23;20094;-87
2022/11/13 14:25:47;;;;;;;11.32;9.65;;;;;;;;;;6102538;23;20061;-87